Time;durP1;ratioP1;P1;durP2;ratioP2;P2;SDS_P1;SDS_P2;PMS_P1;PMS_P2;Temp;Humidity;BMP_temperature;BMP_pressure;BME280_temperature;BME280_humidity;BME280_pressure;Samples;Min_cycle;Max_cycle;Signal;HPM_P1;HPM_P2
2023/01/10 05:01:47;;;;;;;4.15;3.75;;;6.20;99.90;;;;;;5277381;23;20258;-67
2023/01/10 05:04:14;;;;;;;4.00;2.33;;;6.20;99.90;;;;;;4916177;29;20251;-67
2023/01/10 05:06:40;;;;;;;3.92;3.63;;;6.20;99.90;;;;;;4922356;29;20211;-69
2023/01/10 05:09:08;;;;;;;4.70;4.03;;;6.20;99.90;;;;;;4914061;29;20381;-67
2023/01/10 05:11:34;;;;;;;3.28;3.08;;;6.20;99.90;;;;;;4923293;29;20246;-71
2023/01/10 05:14:01;;;;;;;2.65;2.35;;;6.30;99.90;;;;;;4911137;29;20583;-70
2023/01/10 05:16:28;;;;;;;3.35;3.05;;;6.30;99.90;;;;;;4919715;29;20216;-66
2023/01/10 05:18:56;;;;;;;3.72;1.70;;;6.30;99.90;;;;;;4920807;29;20205;-67
2023/01/10 05:21:23;;;;;;;2.40;2.20;;;6.30;99.90;;;;;;4926973;29;20241;-68
2023/01/10 05:23:50;;;;;;;5.40;3.42;;;6.30;99.90;;;;;;4913135;29;20212;-68
2023/01/10 05:26:23;;;;;;;9.88;4.82;;;6.30;99.90;;;;;;4913270;29;20242;-67
2023/01/10 05:28:50;;;;;;;3.58;2.05;;;6.30;99.90;;;;;;4911346;29;20215;-67
2023/01/10 05:31:18;;;;;;;7.78;4.78;;;6.40;99.90;;;;;;4922315;29;20226;-66
2023/01/10 05:33:46;;;;;;;3.33;3.05;;;6.40;99.90;;;;;;4909977;29;20208;-69
2023/01/10 05:36:15;;;;;;;7.47;1.95;;;6.40;99.90;;;;;;4928981;29;20208;-69
2023/01/10 05:38:41;;;;;;;3.05;2.55;;;6.40;99.90;;;;;;4913970;29;20291;-68
2023/01/10 05:41:08;;;;;;;4.72;3.05;;;6.40;99.90;;;;;;4904557;29;20231;-66
2023/01/10 05:43:35;;;;;;;4.35;3.75;;;6.40;99.90;;;;;;4924501;29;20267;-67
2023/01/10 05:46:02;;;;;;;8.18;3.50;;;6.40;99.90;;;;;;4916111;29;20663;-67
2023/01/10 05:48:29;;;;;;;4.00;1.90;;;6.40;99.90;;;;;;4914911;29;20212;-67
2023/01/10 05:50:56;;;;;;;4.05;3.85;;;6.40;99.90;;;;;;4914007;29;20235;-67
2023/01/10 05:53:25;;;;;;;3.00;2.28;;;6.40;99.90;;;;;;4926061;29;20212;-66
2023/01/10 05:55:56;;;;;;;2.55;2.40;;;6.40;99.90;;;;;;4914520;29;20213;-71
2023/01/10 05:58:23;;;;;;;3.88;3.58;;;6.40;99.90;;;;;;4917506;29;20237;-67
2023/01/10 06:00:50;;;;;;;3.83;2.17;;;6.40;99.90;;;;;;4914067;29;20248;-67
2023/01/10 06:03:17;;;;;;;2.45;2.35;;;6.40;99.90;;;;;;4914584;29;20223;-67
2023/01/10 06:05:43;;;;;;;2.05;1.85;;;6.50;99.90;;;;;;4917911;29;20251;-67
2023/01/10 06:08:10;;;;;;;2.40;2.30;;;6.40;99.90;;;;;;4917844;29;20218;-69
2023/01/10 06:10:38;;;;;;;2.75;2.13;;;6.50;99.90;;;;;;4921002;29;20242;-66
2023/01/10 06:13:05;;;;;;;3.67;2.42;;;6.40;99.90;;;;;;4926724;29;20200;-68
2023/01/10 06:15:32;;;;;;;6.88;5.43;;;6.40;99.90;;;;;;4917535;29;20213;-66
2023/01/10 06:17:59;;;;;;;5.00;2.72;;;6.40;99.90;;;;;;4917784;29;20542;-67
2023/01/10 06:20:25;;;;;;;2.33;2.22;;;6.30;99.90;;;;;;4926953;29;20215;-68
2023/01/10 06:22:52;;;;;;;2.95;1.63;;;6.30;99.90;;;;;;4923645;29;20228;-71
2023/01/10 06:25:19;;;;;;;1.60;1.60;;;6.20;99.90;;;;;;4917515;29;20235;-67
2023/01/10 06:27:47;;;;;;;5.35;1.42;;;6.20;99.90;;;;;;4929764;29;20552;-65
2023/01/10 06:30:14;;;;;;;2.92;1.08;;;6.10;99.90;;;;;;4904210;29;20219;-66
2023/01/10 06:32:42;;;;;;;3.10;3.00;;;6.10;99.90;;;;;;4930733;29;20553;-66
2023/01/10 06:35:09;;;;;;;3.55;3.30;;;6.10;99.90;;;;;;4916354;29;20283;-68
2023/01/10 06:37:36;;;;;;;6.50;4.53;;;6.00;99.90;;;;;;4919033;29;20203;-66
2023/01/10 06:40:03;;;;;;;3.15;1.70;;;6.00;99.90;;;;;;4922127;29;20214;-68
2023/01/10 06:42:30;;;;;;;5.55;2.00;;;6.00;99.90;;;;;;4923442;29;20571;-66
2023/01/10 06:44:58;;;;;;;1.55;1.55;;;5.90;99.90;;;;;;4928037;29;20210;-69
2023/01/10 06:47:25;;;;;;;2.47;2.38;;;5.90;99.90;;;;;;4922474;29;20212;-69
2023/01/10 06:49:51;;;;;;;3.53;0.90;;;5.90;99.90;;;;;;4915081;29;20588;-66
2023/01/10 06:52:18;;;;;;;2.60;1.70;;;5.80;99.90;;;;;;4917875;29;20247;-66
2023/01/10 06:54:45;;;;;;;5.82;2.55;;;5.80;99.90;;;;;;4918961;29;20208;-68
2023/01/10 06:57:12;;;;;;;1.42;1.42;;;5.80;99.90;;;;;;4919029;29;20203;-66
2023/01/10 06:59:39;;;;;;;1.58;1.27;;;5.80;99.90;;;;;;4916410;29;20681;-66
2023/01/10 07:02:07;;;;;;;1.48;1.30;;;5.70;99.90;;;;;;4924011;29;20236;-68
2023/01/10 07:04:33;;;;;;;2.15;2.13;;;5.70;99.90;;;;;;4919974;29;20216;-67
2023/01/10 07:07:00;;;;;;;16.15;3.13;;;5.70;99.90;;;;;;4925252;29;20211;-66
2023/01/10 07:09:28;;;;;;;3.80;2.05;;;5.70;99.90;;;;;;4926309;29;20742;-66
2023/01/10 07:11:54;;;;;;;1.67;1.00;;;5.70;99.90;;;;;;4918578;29;20238;-67
2023/01/10 07:14:21;;;;;;;7.43;2.15;;;5.70;99.90;;;;;;4933210;29;20229;-66
2023/01/10 07:16:48;;;;;;;2.53;2.25;;;5.70;99.90;;;;;;4923680;29;20206;-66
2023/01/10 07:19:18;;;;;;;3.38;3.17;;;5.70;99.90;;;;;;4924358;29;20206;-67
2023/01/10 07:21:45;;;;;;;2.40;1.45;;;5.70;99.90;;;;;;4936060;29;20719;-66
2023/01/10 07:24:12;;;;;;;5.47;2.85;;;5.70;99.90;;;;;;4936332;29;20213;-68
2023/01/10 07:26:39;;;;;;;8.38;4.38;;;5.70;99.90;;;;;;4935229;29;20211;-67
2023/01/10 07:29:05;;;;;;;3.28;3.17;;;5.70;99.90;;;;;;4919264;29;20219;-67
2023/01/10 07:31:32;;;;;;;2.90;2.63;;;5.70;99.90;;;;;;4919066;29;20671;-67
2023/01/10 07:33:59;;;;;;;3.90;1.65;;;5.70;99.90;;;;;;4921090;29;20199;-67
2023/01/10 07:36:27;;;;;;;2.67;2.47;;;5.70;99.90;;;;;;4914741;29;20222;-68
2023/01/10 07:38:54;;;;;;;4.72;3.35;;;5.70;99.90;;;;;;4916617;29;20672;-68
2023/01/10 07:41:21;;;;;;;21.98;2.55;;;5.80;99.90;;;;;;4922495;29;20232;-68
2023/01/10 07:43:48;;;;;;;3.92;3.42;;;5.80;99.90;;;;;;4917469;29;20470;-67
2023/01/10 07:46:15;;;;;;;6.65;5.43;;;5.80;99.90;;;;;;4920924;29;20216;-66
2023/01/10 07:48:42;;;;;;;8.38;2.35;;;5.80;99.90;;;;;;4913796;29;20212;-66
2023/01/10 07:51:09;;;;;;;4.53;2.85;;;5.80;99.90;;;;;;4916176;29;20304;-67
2023/01/10 07:53:38;;;;;;;4.80;3.05;;;5.90;99.90;;;;;;4918975;29;20220;-66
2023/01/10 07:56:06;;;;;;;4.63;4.10;;;5.90;99.90;;;;;;4913637;29;20216;-67
2023/01/10 07:58:33;;;;;;;4.57;2.97;;;5.90;99.90;;;;;;4922224;29;20559;-68
2023/01/10 08:01:01;;;;;;;3.22;2.88;;;5.90;99.90;;;;;;4914967;29;20254;-67
2023/01/10 08:03:28;;;;;;;4.40;4.07;;;5.90;99.90;;;;;;4910375;29;20232;-67
2023/01/10 08:05:59;;;;;;;3.40;3.20;;;5.90;99.90;;;;;;4922605;29;20259;-68
2023/01/10 08:08:25;;;;;;;3.92;3.58;;;6.00;99.90;;;;;;4917040;29;20297;-66
2023/01/10 08:10:54;;;;;;;2.58;2.45;;;6.00;99.90;;;;;;4911263;29;20316;-66
2023/01/10 08:13:21;;;;;;;2.72;2.38;;;6.00;99.90;;;;;;4908479;29;20719;-66
2023/01/10 08:15:49;;;;;;;2.35;1.65;;;6.10;99.90;;;;;;4910648;29;20250;-68
2023/01/10 08:18:16;;;;;;;1.50;1.40;;;6.10;99.90;;;;;;4909633;29;20235;-68
2023/01/10 08:20:42;;;;;;;6.55;1.98;;;6.10;99.90;;;;;;4914490;29;20229;-66
2023/01/10 08:23:09;;;;;;;4.53;2.40;;;6.10;99.90;;;;;;4919373;29;20224;-67
2023/01/10 08:25:36;;;;;;;1.95;1.65;;;6.10;99.90;;;;;;4918989;29;20216;-69
2023/01/10 08:28:04;;;;;;;2.25;1.63;;;6.10;99.90;;;;;;4919782;29;20667;-67
2023/01/10 08:30:31;;;;;;;2.42;2.33;;;6.20;99.90;;;;;;4911969;29;20228;-67
2023/01/10 08:32:57;;;;;;;2.00;1.90;;;6.20;99.90;;;;;;4918986;29;20203;-69
2023/01/10 08:35:24;;;;;;;3.58;3.33;;;6.20;99.90;;;;;;4914224;29;20550;-68
2023/01/10 08:37:51;;;;;;;2.03;1.90;;;6.20;99.90;;;;;;4927688;29;20217;-67
2023/01/10 08:40:18;;;;;;;2.42;2.33;;;6.20;99.90;;;;;;4925508;29;20208;-69
2023/01/10 08:42:45;;;;;;;4.97;2.78;;;6.30;99.90;;;;;;4914169;29;20231;-66
2023/01/10 08:45:13;;;;;;;2.22;1.98;;;6.30;99.90;;;;;;4920250;29;20204;-68
2023/01/10 08:47:40;;;;;;;2.42;2.33;;;6.30;99.90;;;;;;4925045;29;20319;-67
2023/01/10 08:50:07;;;;;;;3.38;3.17;;;6.30;99.90;;;;;;4913013;29;20214;-68
2023/01/10 08:52:34;;;;;;;4.20;3.97;;;6.30;99.90;;;;;;4923143;29;20235;-68
2023/01/10 08:55:01;;;;;;;2.78;2.67;;;6.30;99.90;;;;;;4920848;29;20205;-68
2023/01/10 08:57:28;;;;;;;3.42;3.22;;;6.30;99.90;;;;;;4914298;29;20220;-67
2023/01/10 08:59:55;;;;;;;5.03;3.13;;;6.30;99.90;;;;;;4916474;29;20208;-67
2023/01/10 09:02:23;;;;;;;1.23;1.23;;;6.30;99.90;;;;;;4914189;29;20247;-69
2023/01/10 09:04:49;;;;;;;4.68;2.55;;;6.40;99.90;;;;;;4923753;29;20563;-67
2023/01/10 09:07:16;;;;;;;4.78;3.58;;;6.40;99.90;;;;;;4914388;29;20212;-69
2023/01/10 09:09:43;;;;;;;2.85;2.25;;;6.50;99.90;;;;;;4913443;29;20224;-68
2023/01/10 09:14:50;;;;;;;4.88;3.10;;;6.50;99.90;;;;;;4913962;29;20233;-68
2023/01/10 09:17:17;;;;;;;6.45;5.30;;;6.60;99.90;;;;;;4911287;29;20218;-68
2023/01/10 09:19:45;;;;;;;11.27;8.13;;;6.60;99.90;;;;;;4911097;29;20233;-67
2023/01/10 09:22:12;;;;;;;6.13;5.53;;;6.60;99.90;;;;;;4929694;29;20231;-67
2023/01/10 09:24:40;;;;;;;4.88;4.40;;;6.70;99.90;;;;;;4913095;29;20238;-69
2023/01/10 09:27:07;;;;;;;5.05;3.80;;;6.70;99.90;;;;;;4919229;29;20205;-68
2023/01/10 09:29:34;;;;;;;25.23;5.80;;;6.70;99.90;;;;;;4915981;29;20219;-69
2023/01/10 09:32:00;;;;;;;5.00;3.65;;;6.70;99.90;;;;;;4919807;29;20706;-65
2023/01/10 09:34:27;;;;;;;1.90;1.80;;;6.80;99.90;;;;;;4914224;29;20216;-67
2023/01/10 09:36:55;;;;;;;10.77;5.40;;;6.80;99.90;;;;;;4912625;29;20212;-67
2023/01/10 09:39:22;;;;;;;7.43;5.18;;;6.80;99.90;;;;;;4915910;29;20244;-66
2023/01/10 09:42:10;;;;;;;3.33;3.13;;;6.80;99.90;;;;;;4920706;29;20313;-67
2023/01/10 09:44:46;;;;;;;2.45;2.35;;;6.80;99.90;;;;;;4919547;29;20223;-67
2023/01/10 09:47:22;;;;;;;5.95;5.55;;;6.80;99.90;;;;;;4921413;29;20209;-68
2023/01/10 09:49:56;;;;;;;19.60;2.95;;;6.80;99.90;;;;;;4918507;29;20216;-67
2023/01/10 09:52:28;;;;;;;3.33;3.13;;;6.80;99.90;;;;;;4919304;29;20232;-67
2023/01/10 09:54:57;;;;;;;3.55;2.05;;;6.80;99.90;;;;;;4922543;29;20688;-66
2023/01/10 09:57:24;;;;;;;4.70;2.13;;;6.90;99.90;;;;;;4923713;29;20227;-68
2023/01/10 09:59:53;;;;;;;2.72;2.40;;;6.90;99.90;;;;;;4918221;29;20303;-66
2023/01/10 10:02:29;;;;;;;2.53;2.33;;;6.90;99.90;;;;;;4920653;29;20243;-69
2023/01/10 10:05:07;;;;;;;2.22;2.22;;;6.80;99.90;;;;;;4914678;29;20616;-68
2023/01/10 10:07:35;;;;;;;1.92;1.92;;;6.90;99.90;;;;;;4917740;29;20303;-66
2023/01/10 10:10:02;;;;;;;2.63;2.55;;;6.90;99.90;;;;;;4912284;29;20220;-67
2023/01/10 10:12:38;;;;;;;2.17;2.08;;;6.90;99.90;;;;;;4917172;29;20578;-67
2023/01/10 10:15:17;;;;;;;9.50;3.55;;;6.90;99.90;;;;;;4914248;29;20215;-67
2023/01/10 10:17:53;;;;;;;11.95;2.20;;;6.90;99.90;;;;;;4907739;29;20215;-68
2023/01/10 10:20:43;;;;;;;5.55;3.17;;;6.90;99.90;;;;;;4922233;29;20235;-67
2023/01/10 10:23:31;;;;;;;3.05;1.95;;;7.00;99.90;;;;;;4924927;29;20239;-67
2023/01/10 10:26:05;;;;;;;6.18;3.40;;;7.00;99.90;;;;;;4911917;29;20663;-70
2023/01/10 10:28:52;;;;;;;5.35;2.92;;;7.00;99.90;;;;;;4919785;29;20281;-65
2023/01/10 10:31:32;;;;;;;8.60;3.30;;;7.00;99.90;;;;;;4921396;29;20231;-67
2023/01/10 10:34:09;;;;;;;7.28;5.07;;;7.00;99.90;;;;;;4921501;29;20705;-67
2023/01/10 10:36:40;;;;;;;4.57;3.80;;;7.00;99.90;;;;;;4919781;29;20219;-68
2023/01/10 10:39:14;;;;;;;6.25;3.80;;;7.10;99.90;;;;;;4914218;29;20670;-69
2023/01/10 10:41:46;;;;;;;4.47;4.05;;;7.10;99.90;;;;;;4909944;29;20233;-67
2023/01/10 10:44:30;;;;;;;6.53;4.57;;;7.10;99.90;;;;;;4917933;29;20232;-68
2023/01/10 10:46:58;;;;;;;4.00;3.70;;;7.10;99.90;;;;;;4923978;29;20212;-68
2023/01/10 10:49:36;;;;;;;7.38;4.60;;;7.20;99.90;;;;;;4912549;29;20233;-69
2023/01/10 10:52:12;;;;;;;2.35;2.15;;;7.20;99.90;;;;;;4917489;29;20237;-68
2023/01/10 10:54:40;;;;;;;4.43;2.70;;;7.30;99.90;;;;;;4926474;29;20200;-67
2023/01/10 10:57:06;;;;;;;5.38;4.93;;;7.20;99.90;;;;;;4928041;29;20239;-66
2023/01/10 10:59:35;;;;;;;4.15;2.80;;;7.20;99.90;;;;;;4917268;29;20205;-69
2023/01/10 11:02:01;;;;;;;13.23;4.13;;;7.20;99.90;;;;;;4915694;29;20295;-68
2023/01/10 11:04:30;;;;;;;16.45;3.47;;;7.20;99.90;;;;;;4911147;29;20348;-69
2023/01/10 11:06:58;;;;;;;2.97;2.78;;;7.20;99.90;;;;;;4923966;29;20208;-68
2023/01/10 11:09:29;;;;;;;6.43;4.80;;;7.20;99.90;;;;;;4919788;29;20212;-67
2023/01/10 11:11:58;;;;;;;6.63;2.78;;;7.20;99.90;;;;;;4917299;29;20553;-68
2023/01/10 11:14:42;;;;;;;10.27;4.85;;;7.20;99.90;;;;;;4916914;29;20299;-66
2023/01/10 11:17:19;;;;;;;6.90;6.30;;;7.20;99.90;;;;;;4922178;29;20619;-67
2023/01/10 11:19:56;;;;;;;2.85;2.65;;;7.20;99.90;;;;;;4918580;29;20213;-68
2023/01/10 11:22:23;;;;;;;9.77;4.30;;;7.20;99.90;;;;;;4932769;29;20239;-69
2023/01/10 11:24:54;;;;;;;7.57;3.03;;;7.20;99.90;;;;;;4923263;29;20225;-68
2023/01/10 11:27:26;;;;;;;3.17;2.95;;;7.20;99.90;;;;;;4923350;29;20277;-67
2023/01/10 11:29:57;;;;;;;5.60;3.30;;;7.20;99.90;;;;;;4920807;29;20390;-70
2023/01/10 11:32:32;;;;;;;3.97;3.60;;;7.20;99.90;;;;;;4922003;29;20247;-69
2023/01/10 11:35:02;;;;;;;3.17;2.92;;;7.20;99.90;;;;;;4909377;29;20307;-69
2023/01/10 11:37:31;;;;;;;3.92;3.67;;;7.20;99.90;;;;;;4907556;29;20226;-69
2023/01/10 11:40:26;;;;;;;14.30;4.05;;;7.30;99.90;;;;;;4912393;29;20220;-69
2023/01/10 11:42:55;;;;;;;8.45;5.38;;;7.30;99.90;;;;;;4875434;29;20215;-69
2023/01/10 11:45:25;;;;;;;5.47;4.68;;;7.30;99.90;;;;;;4917759;29;20854;-69
2023/01/10 11:47:55;;;;;;;10.38;4.32;;;7.30;99.90;;;;;;4916959;29;20229;-68
2023/01/10 11:50:24;;;;;;;5.38;3.85;;;7.30;99.90;;;;;;4916269;29;20208;-70
2023/01/10 11:52:51;;;;;;;2.95;2.63;;;7.30;99.90;;;;;;4914577;29;20208;-69
2023/01/10 11:55:21;;;;;;;7.15;4.38;;;7.30;99.90;;;;;;4915136;29;20214;-69
2023/01/10 11:58:02;;;;;;;3.30;3.10;;;7.30;99.90;;;;;;4910065;29;20243;-69
2023/01/10 12:00:37;;;;;;;2.80;2.60;;;7.30;99.90;;;;;;4914296;29;20212;-69
2023/01/10 12:03:16;;;;;;;2.42;2.33;;;7.30;99.90;;;;;;4911399;29;20212;-70
2023/01/10 12:05:50;;;;;;;6.18;2.90;;;7.30;99.90;;;;;;4912573;29;20220;-69
2023/01/10 12:08:26;;;;;;;8.90;2.60;;;7.40;99.90;;;;;;4908396;29;20210;-69
2023/01/10 12:11:00;;;;;;;6.75;3.17;;;7.40;99.90;;;;;;4912860;29;20244;-69
2023/01/10 12:13:29;;;;;;;4.07;3.60;;;7.50;99.90;;;;;;4924781;29;20244;-67
2023/01/10 12:16:21;;;;;;;4.40;3.92;;;7.50;99.90;;;;;;4910086;29;20587;-69
2023/01/10 12:18:49;;;;;;;12.63;3.88;;;7.50;99.90;;;;;;4914525;29;20217;-68
2023/01/10 12:21:20;;;;;;;6.35;4.90;;;7.50;99.90;;;;;;4913742;29;20229;-68
2023/01/10 12:23:49;;;;;;;5.20;3.33;;;7.50;99.90;;;;;;4921706;29;20645;-68
2023/01/10 12:26:16;;;;;;;3.65;2.83;;;7.50;99.90;;;;;;4907381;29;20288;-69
2023/01/10 12:28:49;;;;;;;3.45;2.97;;;7.50;99.90;;;;;;4912616;29;20216;-69
2023/01/10 12:31:17;;;;;;;5.05;3.10;;;7.50;99.90;;;;;;4916299;29;20236;-69
2023/01/10 12:33:47;;;;;;;5.25;3.70;;;7.50;99.90;;;;;;4911434;29;20574;-70
2023/01/10 12:36:25;;;;;;;2.55;1.95;;;7.50;99.90;;;;;;4913058;29;20597;-68
2023/01/10 12:39:05;;;;;;;5.93;5.38;;;7.60;99.90;;;;;;4918889;29;20209;-69
2023/01/10 12:44:34;;;;;;;3.40;3.20;;;7.60;99.90;;;;;;4915449;29;20290;-69
2023/01/10 12:47:07;;;;;;;5.10;4.80;;;7.60;99.90;;;;;;4912668;29;20209;-68
2023/01/10 12:49:37;;;;;;;5.90;3.22;;;7.70;99.90;;;;;;4924486;29;20222;-69
2023/01/10 12:52:10;;;;;;;6.70;4.63;;;7.70;99.90;;;;;;4918921;29;20744;-69
2023/01/10 12:54:37;;;;;;;3.20;3.00;;;7.70;99.90;;;;;;4912475;29;20217;-69
2023/01/10 12:57:14;;;;;;;8.15;3.75;;;7.70;99.90;;;;;;4911728;29;20691;-68
2023/01/10 12:59:45;;;;;;;8.55;4.68;;;7.80;99.90;;;;;;4919818;29;20299;-69
2023/01/10 13:02:17;;;;;;;5.28;4.72;;;7.80;99.90;;;;;;4917613;29;20244;-69
2023/01/10 13:04:47;;;;;;;8.18;4.13;;;7.80;99.90;;;;;;4910900;29;20225;-69
2023/01/10 13:07:15;;;;;;;3.22;2.10;;;7.80;99.90;;;;;;4910816;29;20209;-68
2023/01/10 13:09:44;;;;;;;12.00;2.97;;;7.90;99.90;;;;;;4915096;29;20210;-71
2023/01/10 13:12:19;;;;;;;7.40;3.28;;;7.80;99.90;;;;;;4921840;29;20240;-70
2023/01/10 13:14:53;;;;;;;5.05;3.80;;;7.80;99.90;;;;;;4925760;29;20229;-70
2023/01/10 13:17:31;;;;;;;5.05;3.30;;;7.80;99.90;;;;;;4909905;29;20231;-70
2023/01/10 13:20:27;;;;;;;6.45;3.50;;;7.80;99.90;;;;;;4910219;29;20206;-70
2023/01/10 13:22:56;;;;;;;5.20;4.90;;;7.80;99.90;;;;;;4908098;29;20623;-70
2023/01/10 13:25:25;;;;;;;10.75;7.50;;;7.80;99.90;;;;;;4911804;29;20235;-69
2023/01/10 13:27:57;;;;;;;7.00;4.82;;;7.80;99.90;;;;;;4913006;29;20546;-70
2023/01/10 13:30:32;;;;;;;10.73;8.82;;;7.80;99.90;;;;;;4921535;29;20212;-69
2023/01/10 13:33:04;;;;;;;4.72;3.97;;;7.80;99.90;;;;;;4917409;29;20267;-69
2023/01/10 13:35:39;;;;;;;16.35;7.75;;;7.80;99.90;;;;;;4927713;29;20219;-70
2023/01/10 13:38:16;;;;;;;6.55;5.45;;;7.80;99.90;;;;;;4910056;29;20560;-69
2023/01/10 13:41:01;;;;;;;6.80;4.50;;;7.80;99.90;;;;;;4909836;29;20230;-70
2023/01/10 13:43:35;;;;;;;4.75;3.83;;;7.80;99.90;;;;;;4913245;29;20238;-70
2023/01/10 13:46:36;;;;;;;8.05;7.20;;;7.80;99.90;;;;;;4914561;29;20222;-70
2023/01/10 13:49:25;;;;;;;5.95;3.72;;;7.80;99.90;;;;;;4910925;29;20314;-68
2023/01/10 13:52:38;;;;;;;4.72;4.40;;;7.80;99.90;;;;;;4919187;29;20233;-68
2023/01/10 13:55:32;;;;;;;2.72;2.63;;;7.80;99.90;;;;;;4905875;29;20201;-69
2023/01/10 13:58:01;;;;;;;7.63;4.13;;;7.80;99.90;;;;;;4911356;29;20217;-69
2023/01/10 14:03:46;;;;;;;9.27;4.82;;;7.80;99.90;;;;;;4937411;29;20216;-71
2023/01/10 14:06:21;;;;;;;6.22;5.32;;;7.80;99.90;;;;;;4935617;29;20197;-69
2023/01/10 14:08:51;;;;;;;13.90;9.98;;;7.80;99.90;;;;;;4934223;29;20300;-70
2023/01/10 14:11:19;;;;;;;15.57;5.20;;;7.80;99.90;;;;;;4930316;29;20248;-70
2023/01/10 14:13:51;;;;;;;12.43;6.63;;;7.80;99.90;;;;;;4917362;29;20210;-69
2023/01/10 14:16:30;;;;;;;3.40;3.20;;;7.80;99.90;;;;;;4913377;29;20236;-69
2023/01/10 14:18:59;;;;;;;15.48;5.55;;;7.70;99.90;;;;;;4913624;29;20212;-68
2023/01/10 14:21:28;;;;;;;11.48;5.57;;;7.70;99.90;;;;;;4913445;29;20233;-68
2023/01/10 14:23:57;;;;;;;12.85;5.28;;;7.70;99.90;;;;;;4908277;29;20715;-68
2023/01/10 14:26:29;;;;;;;12.35;6.35;;;7.70;99.90;;;;;;4918383;29;20256;-71
2023/01/10 14:28:56;;;;;;;4.88;3.30;;;7.70;99.90;;;;;;4925683;29;20213;-71
2023/01/10 14:31:25;;;;;;;6.43;5.25;;;7.70;99.90;;;;;;4930179;29;20315;-69
2023/01/10 14:33:53;;;;;;;7.40;6.60;;;7.70;99.90;;;;;;4931942;29;20227;-72
2023/01/10 14:36:25;;;;;;;6.07;3.95;;;7.60;99.90;;;;;;4928632;29;20222;-68
2023/01/10 14:38:56;;;;;;;5.97;4.30;;;7.60;99.90;;;;;;4949469;29;20328;-70
2023/01/10 14:41:31;;;;;;;12.95;6.55;;;7.60;99.90;;;;;;4934756;29;20234;-71
2023/01/10 14:44:02;;;;;;;2.17;2.08;;;7.60;99.90;;;;;;4928488;29;20296;-71
2023/01/10 14:46:34;;;;;;;5.97;4.38;;;7.60;99.90;;;;;;4917446;29;20225;-71
2023/01/10 14:49:01;;;;;;;6.30;4.45;;;7.60;99.90;;;;;;4920744;29;20296;-70
2023/01/10 14:51:30;;;;;;;4.22;3.25;;;7.50;99.90;;;;;;4923342;29;20236;-69
2023/01/10 14:54:00;;;;;;;5.20;4.80;;;7.60;99.90;;;;;;4930727;29;20212;-70
2023/01/10 14:56:29;;;;;;;6.75;4.35;;;7.60;99.90;;;;;;4913743;29;20224;-70
2023/01/10 14:58:55;;;;;;;4.40;3.97;;;7.60;99.90;;;;;;4926609;29;20205;-71
2023/01/10 15:01:26;;;;;;;11.52;5.75;;;7.60;99.90;;;;;;4911997;29;20249;-71
2023/01/10 15:03:55;;;;;;;13.38;6.50;;;7.60;99.90;;;;;;4917274;29;20209;-72
2023/01/10 15:06:23;;;;;;;7.03;3.67;;;7.50;99.90;;;;;;4924417;29;20236;-71
2023/01/10 15:08:58;;;;;;;4.75;4.43;;;7.50;99.90;;;;;;4927011;29;20220;-70
2023/01/10 15:11:27;;;;;;;12.23;6.13;;;7.50;99.90;;;;;;4916198;29;20228;-71
2023/01/10 15:13:57;;;;;;;11.18;6.00;;;7.50;99.90;;;;;;4925823;29;20202;-72
2023/01/10 15:16:25;;;;;;;7.35;4.38;;;7.50;99.90;;;;;;4915378;29;20238;-72
2023/01/10 15:18:55;;;;;;;5.95;4.13;;;7.40;99.90;;;;;;4912129;29;20216;-69
2023/01/10 15:21:23;;;;;;;5.00;4.30;;;7.40;99.90;;;;;;4918257;29;20261;-70
2023/01/10 15:23:50;;;;;;;8.60;4.07;;;7.40;99.90;;;;;;4950625;29;20220;-70
2023/01/10 15:26:21;;;;;;;7.20;4.20;;;7.40;99.90;;;;;;4940515;29;20235;-70
2023/01/10 15:29:05;;;;;;;13.20;4.63;;;7.40;99.90;;;;;;4921316;29;20297;-70
2023/01/10 15:31:36;;;;;;;6.10;5.45;;;7.30;99.90;;;;;;4917699;29;20237;-70
2023/01/10 15:34:08;;;;;;;6.25;3.65;;;7.40;99.90;;;;;;4921843;29;20220;-69
2023/01/10 15:36:35;;;;;;;5.25;4.95;;;7.30;99.90;;;;;;4925247;29;20210;-71
2023/01/10 15:39:02;;;;;;;4.05;2.40;;;7.40;99.90;;;;;;4920460;29;20219;-70
2023/01/10 15:41:35;;;;;;;5.85;5.40;;;7.40;99.90;;;;;;4919429;29;20251;-68
2023/01/10 15:44:44;;;;;;;20.30;3.83;;;7.30;99.90;;;;;;4919645;29;20660;-70
2023/01/10 15:47:43;;;;;;;3.53;3.10;;;7.20;99.90;;;;;;4903389;29;20213;-69
2023/01/10 15:50:32;;;;;;;3.60;2.97;;;7.10;99.90;;;;;;4914312;29;20272;-72
2023/01/10 15:53:02;;;;;;;4.70;3.28;;;7.00;99.90;;;;;;4912885;29;20206;-70
2023/01/10 15:55:38;;;;;;;6.80;4.90;;;7.00;99.90;;;;;;4923197;29;20213;-70
2023/01/10 15:58:13;;;;;;;3.40;3.13;;;7.00;99.90;;;;;;4917579;29;20210;-70
2023/01/10 16:00:43;;;;;;;14.80;6.00;;;6.90;99.90;;;;;;4915266;29;20322;-71
2023/01/10 16:03:18;;;;;;;5.85;4.32;;;6.90;99.90;;;;;;4922334;29;20219;-71
2023/01/10 16:05:50;;;;;;;4.00;3.20;;;6.80;99.90;;;;;;4914888;29;20641;-68
2023/01/10 16:08:19;;;;;;;12.15;4.22;;;6.80;99.90;;;;;;4920973;29;20672;-68
2023/01/10 16:10:52;;;;;;;11.18;4.45;;;6.80;99.90;;;;;;4929476;29;20250;-70
2023/01/10 16:13:25;;;;;;;12.32;7.72;;;6.80;99.90;;;;;;4925562;29;20224;-70
2023/01/10 16:15:52;;;;;;;8.68;4.07;;;6.80;99.90;;;;;;4922454;29;20275;-71
2023/01/10 16:18:19;;;;;;;19.13;4.80;;;6.70;99.90;;;;;;4920140;29;20211;-69
2023/01/10 16:20:47;;;;;;;6.00;5.53;;;6.70;99.90;;;;;;4916027;29;20696;-70
2023/01/10 16:23:17;;;;;;;14.35;5.13;;;6.70;99.90;;;;;;4932200;29;20520;-70
2023/01/10 16:25:46;;;;;;;3.72;3.40;;;6.70;99.90;;;;;;4928121;29;20224;-66
2023/01/10 16:28:15;;;;;;;8.60;4.22;;;6.70;99.90;;;;;;4914477;29;20216;-68
2023/01/10 16:30:45;;;;;;;8.32;3.33;;;6.70;99.90;;;;;;4918597;29;20243;-70
2023/01/10 16:33:16;;;;;;;5.60;4.55;;;6.70;99.90;;;;;;4921636;29;20208;-71
2023/01/10 16:35:43;;;;;;;18.67;5.18;;;6.70;99.90;;;;;;4917139;29;20227;-70
2023/01/10 16:38:10;;;;;;;7.35;3.25;;;6.70;99.90;;;;;;4920953;29;20607;-68
2023/01/10 16:40:39;;;;;;;4.90;4.15;;;6.70;99.90;;;;;;4911786;29;20654;-70
2023/01/10 16:43:17;;;;;;;6.35;4.20;;;6.70;99.90;;;;;;4917249;29;20583;-68
2023/01/10 16:45:46;;;;;;;3.00;2.60;;;6.70;99.90;;;;;;4902531;29;20321;-68
2023/01/10 16:48:13;;;;;;;8.07;4.60;;;6.70;99.90;;;;;;4912139;29;20211;-68
2023/01/10 16:50:41;;;;;;;10.05;4.03;;;6.70;99.90;;;;;;4933282;29;20244;-67
2023/01/10 16:53:11;;;;;;;2.65;2.55;;;6.70;99.90;;;;;;4924830;29;20239;-67
2023/01/10 16:55:41;;;;;;;5.78;4.38;;;6.70;99.90;;;;;;4922681;29;20789;-69
2023/01/10 16:58:08;;;;;;;4.72;1.75;;;6.70;99.90;;;;;;4904751;29;20207;-67
2023/01/10 17:00:36;;;;;;;9.35;2.78;;;6.70;99.90;;;;;;4913459;29;20589;-68
2023/01/10 17:03:08;;;;;;;7.80;5.72;;;6.70;99.90;;;;;;4921967;29;20574;-67
2023/01/10 17:05:37;;;;;;;3.40;3.30;;;6.70;99.90;;;;;;4915697;29;20352;-68
2023/01/10 17:08:04;;;;;;;5.97;4.43;;;6.70;99.90;;;;;;4914889;29;20218;-68
2023/01/10 17:10:34;;;;;;;9.18;3.83;;;6.70;99.90;;;;;;4912253;29;20578;-69
2023/01/10 17:13:02;;;;;;;2.47;2.15;;;6.70;99.90;;;;;;4923403;29;20219;-66
2023/01/10 17:15:28;;;;;;;4.78;4.43;;;6.70;99.90;;;;;;4931238;29;20262;-67
2023/01/10 17:17:55;;;;;;;8.05;5.85;;;6.70;99.90;;;;;;4916121;29;20213;-69
2023/01/10 17:20:23;;;;;;;4.47;4.28;;;6.70;99.90;;;;;;4915900;29;20214;-69
2023/01/10 17:22:50;;;;;;;6.53;5.43;;;6.70;99.90;;;;;;4913167;29;20208;-70
2023/01/10 17:25:18;;;;;;;4.53;4.22;;;6.60;99.90;;;;;;4921412;29;20227;-69
2023/01/10 17:27:45;;;;;;;13.73;7.38;;;6.60;99.90;;;;;;4913863;29;20665;-68
2023/01/10 17:30:12;;;;;;;14.57;7.30;;;6.60;99.90;;;;;;4920885;29;20552;-69
2023/01/10 17:32:39;;;;;;;8.27;3.65;;;6.60;99.90;;;;;;4912182;29;20312;-69
2023/01/10 17:35:07;;;;;;;16.70;8.65;;;6.60;99.90;;;;;;4905835;29;20204;-70
2023/01/10 17:37:35;;;;;;;11.90;6.32;;;6.60;99.90;;;;;;4915171;29;20213;-70
2023/01/10 17:40:02;;;;;;;7.18;5.05;;;6.60;99.90;;;;;;4929451;29;20767;-69
2023/01/10 17:42:29;;;;;;;5.28;4.35;;;6.60;99.90;;;;;;4921318;29;20232;-67
2023/01/10 17:44:55;;;;;;;2.65;2.45;;;6.60;99.90;;;;;;4918395;29;20571;-69
2023/01/10 17:47:22;;;;;;;6.00;3.70;;;6.50;99.90;;;;;;4911805;29;20221;-71
2023/01/10 17:49:49;;;;;;;17.58;4.63;;;6.60;99.90;;;;;;4921283;29;20211;-71
2023/01/10 17:52:16;;;;;;;7.97;3.58;;;6.50;99.90;;;;;;4913084;29;20251;-69
2023/01/10 17:54:44;;;;;;;6.07;5.57;;;6.50;99.90;;;;;;4913960;29;20235;-71
2023/01/10 17:57:11;;;;;;;1.80;1.77;;;6.50;99.90;;;;;;4931395;23;20219;-68
2023/01/10 17:59:37;;;;;;;3.55;3.35;;;6.50;99.90;;;;;;4891440;29;20308;-68
2023/01/10 18:02:04;;;;;;;3.40;3.15;;;6.50;99.90;;;;;;4897591;29;20223;-67
2023/01/10 18:04:31;;;;;;;3.72;3.28;;;6.50;99.90;;;;;;4902763;29;20212;-68
2023/01/10 18:06:58;;;;;;;8.40;3.33;;;6.50;99.90;;;;;;4913172;29;20231;-67
2023/01/10 18:09:25;;;;;;;8.32;2.65;;;6.50;99.90;;;;;;4898524;29;20608;-67
2023/01/10 18:11:53;;;;;;;5.07;2.90;;;6.50;99.90;;;;;;4901665;29;20283;-66
2023/01/10 18:14:38;;;;;;;6.07;2.95;;;6.50;99.90;;;;;;4902373;29;20217;-67
2023/01/10 18:17:07;;;;;;;4.03;1.50;;;6.50;99.90;;;;;;4889711;29;20209;-66
2023/01/10 18:19:34;;;;;;;1.65;1.55;;;6.50;99.90;;;;;;4905659;29;20213;-66
2023/01/10 18:23:19;;;;;;;3.28;2.60;;;6.50;99.90;;;;;;4903493;29;20580;-67